Time;durP1;ratioP1;P1;durP2;ratioP2;P2;SDS_P1;SDS_P2;PMS_P1;PMS_P2;Temp;Humidity;BMP_temperature;BMP_pressure;BME280_temperature;BME280_humidity;BME280_pressure;Samples;Min_cycle;Max_cycle;Signal;HPM_P1;HPM_P2
2022/05/21 00:01:11;;;;;;;4.27;3.57;;;12.30;99.90;;;;;;4962587;28;21003;-74
2022/05/21 00:03:40;;;;;;;4.40;3.63;;;12.30;99.90;;;;;;4963319;28;21062;-74
2022/05/21 00:06:08;;;;;;;3.07;2.77;;;12.20;99.90;;;;;;4962141;28;20444;-73
2022/05/21 00:08:36;;;;;;;6.53;2.90;;;12.20;99.90;;;;;;4963060;28;20447;-74
2022/05/21 00:11:04;;;;;;;4.93;3.20;;;12.20;99.90;;;;;;4962804;28;20463;-72
2022/05/21 00:13:32;;;;;;;6.17;3.83;;;12.20;99.90;;;;;;4962100;28;20468;-75
2022/05/21 00:16:00;;;;;;;5.00;3.20;;;12.20;99.90;;;;;;4962201;28;20961;-74
2022/05/21 00:18:29;;;;;;;4.33;2.90;;;12.20;99.90;;;;;;4962545;28;20462;-74
2022/05/21 00:20:57;;;;;;;5.30;2.80;;;12.20;99.90;;;;;;4962181;28;20464;-74
2022/05/21 00:23:28;;;;;;;3.13;2.57;;;12.10;99.90;;;;;;4962613;28;20475;-76
2022/05/21 00:25:59;;;;;;;3.63;2.63;;;12.10;99.90;;;;;;4962225;28;20579;-75
2022/05/21 00:28:27;;;;;;;6.23;3.10;;;12.10;99.90;;;;;;4962700;28;21200;-76
2022/05/21 00:30:55;;;;;;;5.80;3.23;;;12.20;99.90;;;;;;4962719;28;21131;-74
2022/05/21 00:33:24;;;;;;;6.77;3.60;;;12.20;99.90;;;;;;4962827;28;20478;-74
2022/05/21 00:35:54;;;;;;;7.30;3.27;;;12.10;99.90;;;;;;4962351;28;20442;-74
2022/05/21 00:38:22;;;;;;;4.33;3.97;;;12.00;99.90;;;;;;4962802;28;20444;-68
2022/05/21 00:40:51;;;;;;;7.53;4.40;;;11.90;99.90;;;;;;4962745;28;20474;-73
2022/05/21 00:43:36;;;;;;;6.10;3.70;;;11.90;99.90;;;;;;4962969;28;20471;-71
2022/05/21 00:46:06;;;;;;;5.67;4.13;;;11.80;99.90;;;;;;4962120;28;20440;-71
2022/05/21 00:48:35;;;;;;;9.77;4.47;;;11.80;99.90;;;;;;4961626;28;20436;-71
2022/05/21 00:51:08;;;;;;;7.83;4.17;;;11.90;99.90;;;;;;4961567;28;20986;-71
2022/05/21 00:53:36;;;;;;;8.27;6.00;;;11.90;99.90;;;;;;4934531;28;20463;-71
2022/05/21 00:56:06;;;;;;;7.40;4.00;;;11.80;99.90;;;;;;4935441;28;20452;-71
2022/05/21 01:01:20;;;;;;;6.33;3.70;;;11.80;99.90;;;;;;4943917;28;21162;-71
2022/05/21 01:03:48;;;;;;;7.00;4.00;;;11.80;99.90;;;;;;4938750;28;20493;-71
2022/05/21 01:06:17;;;;;;;4.33;3.93;;;11.90;99.90;;;;;;4942884;29;20464;-71
2022/05/21 01:08:45;;;;;;;4.50;4.03;;;11.80;99.90;;;;;;4925151;29;21076;-71
2022/05/21 01:11:17;;;;;;;6.90;3.83;;;11.80;99.90;;;;;;4923075;29;20464;-71
2022/05/21 01:13:48;;;;;;;5.73;4.67;;;11.70;99.90;;;;;;4932791;28;20463;-71
2022/05/21 01:16:21;;;;;;;4.80;4.20;;;11.60;99.90;;;;;;4930023;28;20487;-71
2022/05/21 01:18:49;;;;;;;4.63;3.90;;;11.60;99.90;;;;;;4937689;28;20449;-71
2022/05/21 01:21:18;;;;;;;4.27;3.40;;;11.50;99.90;;;;;;4928523;28;20469;-71
2022/05/21 01:23:47;;;;;;;5.93;4.50;;;11.40;99.90;;;;;;4929937;28;21216;-71
2022/05/21 01:26:20;;;;;;;8.37;4.50;;;11.40;99.90;;;;;;4926710;29;20520;-74
2022/05/21 01:28:48;;;;;;;5.33;3.80;;;11.40;99.90;;;;;;4926724;29;20656;-74
2022/05/21 01:31:16;;;;;;;4.27;3.90;;;11.30;99.90;;;;;;4938795;29;20461;-74
2022/05/21 01:33:45;;;;;;;7.70;4.47;;;11.30;99.90;;;;;;4938564;29;20485;-74
2022/05/21 01:36:14;;;;;;;3.73;3.43;;;11.30;99.90;;;;;;4922112;29;21000;-73
2022/05/21 01:38:43;;;;;;;9.57;4.40;;;11.20;99.90;;;;;;4926985;29;20459;-71
2022/05/21 01:41:12;;;;;;;4.50;4.07;;;11.20;99.90;;;;;;4939449;28;21163;-72
2022/05/21 01:46:26;;;;;;;7.17;4.23;;;11.20;99.90;;;;;;4922687;29;20541;-71
2022/05/21 01:48:54;;;;;;;7.20;4.43;;;11.10;99.90;;;;;;4937587;29;20662;-72
2022/05/21 01:51:22;;;;;;;11.70;4.10;;;11.10;99.90;;;;;;4941162;29;20457;-72
2022/05/21 01:53:49;;;;;;;7.53;4.83;;;11.10;99.90;;;;;;4948000;28;21139;-72
2022/05/21 01:56:19;;;;;;;5.40;4.60;;;11.10;99.90;;;;;;4954538;28;20531;-72
2022/05/21 01:58:47;;;;;;;4.83;3.73;;;11.10;99.90;;;;;;4935703;28;20991;-72
2022/05/21 02:01:15;;;;;;;8.23;4.27;;;11.10;99.90;;;;;;4934856;29;21161;-72
2022/05/21 02:03:43;;;;;;;7.47;4.10;;;11.10;99.90;;;;;;4941429;28;20495;-72
2022/05/21 02:06:11;;;;;;;3.87;3.57;;;11.10;99.90;;;;;;4940884;28;20447;-72
2022/05/21 02:08:38;;;;;;;5.03;4.20;;;11.10;99.90;;;;;;4941110;28;20940;-73
2022/05/21 02:11:06;;;;;;;4.23;3.83;;;11.00;99.90;;;;;;4940793;28;21176;-74
2022/05/21 02:13:36;;;;;;;9.53;3.93;;;11.20;99.90;;;;;;4940726;28;20445;-72
2022/05/21 02:16:05;;;;;;;6.83;3.20;;;11.20;99.90;;;;;;4922716;29;20468;-72
2022/05/21 02:18:33;;;;;;;8.80;4.27;;;11.40;99.90;;;;;;4921069;29;20476;-72
2022/05/21 02:21:00;;;;;;;4.73;4.33;;;11.50;99.90;;;;;;4921535;29;20553;-71
2022/05/21 02:23:28;;;;;;;4.97;3.17;;;11.60;99.90;;;;;;4923440;29;20453;-72
2022/05/21 02:26:00;;;;;;;6.83;3.73;;;11.70;99.90;;;;;;4925386;29;20494;-72
2022/05/21 02:28:28;;;;;;;5.80;3.73;;;11.80;99.90;;;;;;4940528;28;20585;-72
2022/05/21 02:30:57;;;;;;;7.63;5.20;;;11.90;99.90;;;;;;4938909;29;20992;-72
2022/05/21 02:33:31;;;;;;;5.53;5.03;;;12.00;99.90;;;;;;4921577;29;20563;-73
2022/05/21 02:36:01;;;;;;;6.13;5.50;;;12.00;99.90;;;;;;4921720;29;20433;-73
2022/05/21 02:41:32;;;;;;;6.80;5.03;;;12.10;99.90;;;;;;4921167;29;20457;-73
2022/05/21 02:44:00;;;;;;;8.67;5.93;;;12.20;99.90;;;;;;4920974;29;20446;-73
2022/05/21 02:46:29;;;;;;;5.87;5.30;;;12.30;99.90;;;;;;4940577;28;21173;-73
2022/05/21 02:48:57;;;;;;;4.40;4.10;;;12.40;99.90;;;;;;4941216;29;20460;-74
2022/05/21 02:51:28;;;;;;;10.47;4.40;;;12.40;99.90;;;;;;4940278;29;20468;-74
2022/05/21 02:53:56;;;;;;;4.50;4.10;;;12.50;99.90;;;;;;4929964;29;20454;-73
2022/05/21 02:56:24;;;;;;;10.50;5.00;;;12.50;99.90;;;;;;4921462;29;20469;-73
2022/05/21 02:58:52;;;;;;;4.40;3.70;;;12.50;99.90;;;;;;4939790;29;20472;-73
2022/05/21 03:01:19;;;;;;;4.93;4.40;;;12.50;99.90;;;;;;4940260;29;20465;-73
2022/05/21 03:03:49;;;;;;;4.97;4.50;;;12.40;99.90;;;;;;4939953;28;20994;-72
2022/05/21 03:06:16;;;;;;;8.20;5.20;;;12.40;99.90;;;;;;4939998;29;20472;-73
2022/05/21 03:11:30;;;;;;;4.30;3.90;;;12.50;99.90;;;;;;4946008;28;20488;-73
2022/05/21 03:13:57;;;;;;;4.57;4.27;;;12.50;99.90;;;;;;4939974;29;20579;-73
2022/05/21 03:16:25;;;;;;;5.43;5.03;;;12.50;99.90;;;;;;4939516;28;21131;-72
2022/05/21 03:18:54;;;;;;;8.40;4.67;;;12.50;99.90;;;;;;4939854;29;21052;-72
2022/05/21 03:21:22;;;;;;;4.40;4.10;;;12.60;99.90;;;;;;4939789;29;20456;-72
2022/05/21 03:23:50;;;;;;;4.67;4.20;;;12.60;99.90;;;;;;4939728;29;20440;-72
2022/05/21 03:26:18;;;;;;;3.87;3.57;;;12.60;99.90;;;;;;4942098;28;20491;-73
2022/05/21 03:28:46;;;;;;;5.93;3.73;;;12.60;99.90;;;;;;4945385;29;20448;-72
2022/05/21 03:31:13;;;;;;;5.10;4.70;;;12.60;99.90;;;;;;4944047;29;20470;-72
2022/05/21 03:33:41;;;;;;;4.17;3.83;;;12.50;99.90;;;;;;4943502;29;20448;-72
2022/05/21 03:36:10;;;;;;;4.67;3.87;;;12.60;99.90;;;;;;4943827;28;20540;-72
2022/05/21 03:38:38;;;;;;;3.93;3.70;;;12.50;99.90;;;;;;4943876;29;20451;-72
2022/05/21 03:41:06;;;;;;;3.30;3.00;;;12.50;99.90;;;;;;4943539;28;21130;-72
2022/05/21 03:43:34;;;;;;;3.80;3.53;;;12.60;99.90;;;;;;4943997;29;20455;-71
2022/05/21 03:46:03;;;;;;;3.33;3.13;;;12.70;99.90;;;;;;4943278;29;20484;-72
2022/05/21 03:48:31;;;;;;;4.00;3.60;;;12.60;99.90;;;;;;4943939;28;20580;-72
2022/05/21 03:50:59;;;;;;;5.53;3.30;;;12.60;99.90;;;;;;4943235;29;21127;-72
2022/05/21 03:53:29;;;;;;;6.30;3.80;;;12.60;99.90;;;;;;4932877;28;20461;-72
2022/05/21 03:55:57;;;;;;;4.00;3.70;;;12.60;99.90;;;;;;4924297;29;20450;-73
2022/05/21 03:58:25;;;;;;;3.20;2.90;;;12.60;99.90;;;;;;4923846;29;20457;-73
2022/05/21 04:00:53;;;;;;;3.83;3.53;;;12.70;99.90;;;;;;4923910;29;20482;-73
2022/05/21 04:03:21;;;;;;;4.00;3.80;;;12.80;99.90;;;;;;4923999;29;21041;-73
2022/05/21 04:05:49;;;;;;;4.37;3.97;;;12.70;99.90;;;;;;4923806;29;20489;-73
2022/05/21 04:08:17;;;;;;;4.40;4.00;;;12.60;99.90;;;;;;4924467;29;20540;-73
2022/05/21 04:10:48;;;;;;;4.53;4.13;;;12.60;99.90;;;;;;4923494;29;20548;-73
2022/05/21 04:13:16;;;;;;;5.13;3.80;;;12.60;99.90;;;;;;4924470;29;20489;-74
2022/05/21 04:15:44;;;;;;;4.93;4.00;;;12.60;99.90;;;;;;4934083;28;20444;-72
2022/05/21 04:18:13;;;;;;;5.00;4.30;;;12.60;99.90;;;;;;4942497;29;20484;-73
2022/05/21 04:20:41;;;;;;;7.63;5.03;;;12.60;99.90;;;;;;4942369;28;20461;-71
2022/05/21 04:23:09;;;;;;;4.73;4.27;;;12.60;99.90;;;;;;4943175;28;20552;-71
2022/05/21 04:25:37;;;;;;;10.00;5.60;;;12.60;99.90;;;;;;4923868;29;20490;-71
2022/05/21 04:28:06;;;;;;;6.23;5.63;;;12.60;99.90;;;;;;4924765;29;20560;-71
2022/05/21 04:30:35;;;;;;;6.07;4.50;;;12.50;99.90;;;;;;4923919;29;20461;-72
2022/05/21 04:33:03;;;;;;;7.97;5.90;;;12.60;99.90;;;;;;4924005;29;20513;-72
2022/05/21 04:38:13;;;;;;;8.43;5.27;;;12.70;99.90;;;;;;4939714;29;20456;-72
2022/05/21 04:40:41;;;;;;;10.40;6.60;;;12.70;99.90;;;;;;4942236;28;20475;-72
2022/05/21 04:43:11;;;;;;;9.47;7.20;;;12.70;99.90;;;;;;4942375;28;20455;-72
2022/05/21 04:45:39;;;;;;;8.30;7.70;;;12.70;99.90;;;;;;4942294;28;20547;-72
2022/05/21 04:48:09;;;;;;;7.50;6.17;;;12.80;99.90;;;;;;4942621;29;20448;-72
2022/05/21 04:50:38;;;;;;;8.20;7.37;;;12.80;99.90;;;;;;4929933;29;20474;-73
2022/05/21 04:53:07;;;;;;;10.70;8.33;;;12.90;99.90;;;;;;4932078;29;20437;-73
2022/05/21 04:55:35;;;;;;;9.57;8.57;;;12.90;99.90;;;;;;4942132;28;20443;-73
2022/05/21 04:58:02;;;;;;;10.13;8.30;;;12.90;99.90;;;;;;4942523;28;20491;-73
2022/05/21 05:00:32;;;;;;;11.43;8.60;;;13.00;99.90;;;;;;4942583;29;20483;-73
2022/05/21 05:03:00;;;;;;;10.83;9.83;;;13.10;99.90;;;;;;4942540;29;20467;-73
2022/05/21 05:05:28;;;;;;;10.47;9.37;;;13.10;99.90;;;;;;4942213;29;20480;-73
2022/05/21 05:07:55;;;;;;;12.23;10.93;;;13.10;99.90;;;;;;4942400;29;20461;-73
2022/05/21 05:10:23;;;;;;;14.47;12.77;;;13.20;99.90;;;;;;4941354;28;20441;-75
2022/05/21 05:12:51;;;;;;;13.40;11.70;;;13.20;99.90;;;;;;4941868;28;20484;-75
2022/05/21 05:15:19;;;;;;;14.50;13.10;;;13.20;99.90;;;;;;4941799;28;20452;-73
2022/05/21 05:17:49;;;;;;;15.13;13.53;;;13.20;99.90;;;;;;4942565;28;20449;-73
2022/05/21 05:20:17;;;;;;;15.13;13.63;;;13.20;99.90;;;;;;4950974;28;20446;-73
2022/05/21 05:22:44;;;;;;;16.93;14.90;;;13.20;99.90;;;;;;4952591;28;20446;-73
2022/05/21 05:25:12;;;;;;;19.73;17.53;;;13.30;99.90;;;;;;4951109;28;20441;-72
2022/05/21 05:27:40;;;;;;;18.53;16.63;;;13.30;99.90;;;;;;4950196;28;20457;-74
2022/05/21 05:30:09;;;;;;;19.60;17.50;;;13.30;99.90;;;;;;4951659;28;20969;-72
2022/05/21 05:32:37;;;;;;;18.90;16.93;;;13.30;99.90;;;;;;4951860;28;20444;-76
2022/05/21 05:35:08;;;;;;;19.33;17.43;;;13.30;99.90;;;;;;4950357;28;21084;-73
2022/05/21 05:37:36;;;;;;;21.40;17.50;;;13.40;99.90;;;;;;4950238;28;20953;-74
2022/05/21 05:40:05;;;;;;;20.70;16.53;;;13.30;99.90;;;;;;4952356;28;20437;-75
2022/05/21 05:42:35;;;;;;;19.20;17.20;;;13.40;99.90;;;;;;4951102;28;20474;-72
2022/05/21 05:45:06;;;;;;;18.37;15.53;;;13.40;99.90;;;;;;4950880;28;20456;-72
2022/05/21 05:47:34;;;;;;;21.70;19.40;;;13.50;99.90;;;;;;4952258;28;20490;-74
2022/05/21 05:50:07;;;;;;;20.00;17.63;;;13.50;99.90;;;;;;4949973;28;20962;-74
2022/05/21 05:52:35;;;;;;;20.10;17.77;;;13.50;99.90;;;;;;4952444;28;20444;-74
2022/05/21 05:55:05;;;;;;;23.20;17.33;;;13.50;99.90;;;;;;4951526;28;21048;-74
2022/05/21 05:57:33;;;;;;;24.70;18.93;;;13.50;99.90;;;;;;4950316;28;20448;-74
2022/05/21 06:00:00;;;;;;;22.13;17.80;;;13.60;99.90;;;;;;4950100;28;20467;-77
2022/05/21 06:05:19;;;;;;;25.20;19.20;;;13.60;99.90;;;;;;4947713;28;20447;-72
2022/05/21 06:07:49;;;;;;;21.13;18.97;;;13.60;99.90;;;;;;4950775;28;20998;-73
2022/05/21 06:10:19;;;;;;;21.20;18.73;;;13.70;99.90;;;;;;4950072;28;20444;-76
2022/05/21 06:12:48;;;;;;;25.43;19.67;;;13.80;99.90;;;;;;4948616;28;20457;-76
2022/05/21 06:15:17;;;;;;;22.70;18.60;;;13.80;99.90;;;;;;4949983;28;20451;-76
2022/05/21 06:17:45;;;;;;;24.70;19.80;;;13.70;99.90;;;;;;4951732;28;20442;-75
2022/05/21 06:20:16;;;;;;;22.50;18.50;;;13.60;99.90;;;;;;4949962;28;20531;-75
2022/05/21 06:22:45;;;;;;;23.23;19.30;;;13.50;99.90;;;;;;4949829;28;20473;-75
2022/05/21 06:25:17;;;;;;;23.13;19.60;;;13.50;99.90;;;;;;4949524;28;20482;-75
2022/05/21 06:27:45;;;;;;;22.80;19.27;;;13.50;99.90;;;;;;4950572;28;20479;-76
2022/05/21 06:30:14;;;;;;;25.80;22.23;;;13.60;99.90;;;;;;4944409;28;20483;-75
2022/05/21 06:32:45;;;;;;;24.00;20.93;;;13.70;99.90;;;;;;4940467;28;21170;-76
2022/05/21 06:35:17;;;;;;;22.60;20.10;;;13.70;99.90;;;;;;4941489;28;20453;-77
2022/05/21 06:37:45;;;;;;;21.93;19.40;;;13.80;99.90;;;;;;4943548;28;20533;-76
2022/05/21 06:40:16;;;;;;;24.00;21.63;;;14.00;99.90;;;;;;4939194;28;20453;-76
2022/05/21 06:42:44;;;;;;;21.90;19.60;;;14.10;99.90;;;;;;4939821;28;21077;-77
2022/05/21 06:45:12;;;;;;;25.80;22.30;;;14.10;99.90;;;;;;4945149;28;21218;-75
2022/05/21 06:47:40;;;;;;;23.73;21.07;;;14.20;99.90;;;;;;4944684;28;20508;-76
2022/05/21 06:50:09;;;;;;;26.67;19.67;;;14.40;99.90;;;;;;4934623;28;20445;-76
2022/05/21 06:52:39;;;;;;;24.30;21.23;;;14.50;99.90;;;;;;4943824;28;20472;-75
2022/05/21 06:55:10;;;;;;;20.50;17.60;;;14.60;99.90;;;;;;4933573;28;20521;-75
2022/05/21 06:57:38;;;;;;;22.13;19.70;;;14.70;99.90;;;;;;4945064;28;20465;-76
2022/05/21 07:00:07;;;;;;;22.97;20.77;;;14.70;99.90;;;;;;4947737;28;20547;-76
2022/05/21 07:02:35;;;;;;;25.63;21.53;;;14.80;99.90;;;;;;4951365;28;20455;-76
2022/05/21 07:07:51;;;;;;;25.03;21.70;;;14.80;99.90;;;;;;4935414;28;21538;-76
2022/05/21 07:10:21;;;;;;;23.03;20.50;;;14.80;99.90;;;;;;4946923;28;20455;-76
2022/05/21 07:12:50;;;;;;;21.73;19.57;;;14.90;99.90;;;;;;4943923;28;20603;-76
2022/05/21 07:15:18;;;;;;;30.37;20.53;;;15.00;99.90;;;;;;4948506;28;20436;-75
2022/05/21 07:17:47;;;;;;;20.80;17.90;;;15.00;99.90;;;;;;4946013;28;20452;-76
2022/05/21 07:20:17;;;;;;;23.43;21.10;;;15.00;99.90;;;;;;4945623;28;20453;-76
2022/05/21 07:22:50;;;;;;;20.93;18.87;;;15.10;99.90;;;;;;4947239;28;20547;-78
2022/05/21 07:25:20;;;;;;;22.57;20.10;;;15.20;99.90;;;;;;4949579;28;20833;-75
2022/05/21 07:27:48;;;;;;;18.70;16.90;;;15.20;99.90;;;;;;4945506;28;20568;-74
2022/05/21 07:30:16;;;;;;;19.47;17.37;;;15.20;99.90;;;;;;4947993;28;20456;-75
2022/05/21 07:32:45;;;;;;;21.00;18.57;;;15.30;99.90;;;;;;4946799;28;20579;-71
2022/05/21 07:35:15;;;;;;;23.70;18.07;;;15.30;99.90;;;;;;4947683;28;20983;-75
2022/05/21 07:37:47;;;;;;;20.00;17.87;;;15.40;99.90;;;;;;4944929;28;20815;-74
2022/05/21 07:40:17;;;;;;;19.10;15.00;;;15.60;99.90;;;;;;4950007;28;20462;-74
2022/05/21 07:42:45;;;;;;;18.87;16.83;;;15.60;99.90;;;;;;4947471;28;20755;-74
2022/05/21 07:45:16;;;;;;;20.27;17.47;;;15.70;99.90;;;;;;4947282;28;20475;-81
2022/05/21 07:47:44;;;;;;;15.60;14.10;;;15.90;99.90;;;;;;4944929;28;20641;-71
2022/05/21 07:50:12;;;;;;;23.87;15.60;;;16.00;99.90;;;;;;4946206;28;20482;-71
2022/05/21 07:52:40;;;;;;;16.47;14.70;;;16.20;99.90;;;;;;4940794;28;20542;-71
2022/05/21 07:55:09;;;;;;;17.80;13.63;;;16.30;99.90;;;;;;4941728;28;20529;-71
2022/05/21 07:57:39;;;;;;;16.33;12.97;;;16.30;99.90;;;;;;4944403;28;20552;-71
2022/05/21 08:00:10;;;;;;;13.10;11.70;;;16.50;99.90;;;;;;4947723;28;20545;-70
2022/05/21 08:02:41;;;;;;;21.60;12.40;;;16.70;99.90;;;;;;4946195;28;21122;-71
2022/05/21 08:05:10;;;;;;;13.73;10.50;;;16.80;99.90;;;;;;4949120;28;20450;-71
2022/05/21 08:07:38;;;;;;;13.13;11.20;;;16.90;99.90;;;;;;4947064;28;21145;-72
2022/05/21 08:10:07;;;;;;;15.50;10.93;;;16.90;99.90;;;;;;4946048;28;20440;-70
2022/05/21 08:12:39;;;;;;;20.70;11.33;;;16.90;99.90;;;;;;4948390;28;20463;-70
2022/05/21 08:15:11;;;;;;;11.53;10.40;;;16.70;99.90;;;;;;4950823;28;20450;-70
2022/05/21 08:17:39;;;;;;;16.83;11.30;;;16.50;99.90;;;;;;4951538;28;20485;-74
2022/05/21 08:20:10;;;;;;;11.47;10.27;;;16.30;99.90;;;;;;4950392;28;20454;-75
2022/05/21 08:28:13;;;;;;;15.40;10.20;;;15.70;99.90;;;;;;4932396;28;20486;-75
2022/05/21 08:30:42;;;;;;;13.10;11.70;;;15.50;99.90;;;;;;4939227;28;20477;-75
2022/05/21 08:33:10;;;;;;;15.43;12.13;;;15.30;99.90;;;;;;4953234;28;20452;-74
2022/05/21 08:35:40;;;;;;;12.90;10.57;;;15.10;99.90;;;;;;4942986;28;20457;-75
2022/05/21 08:38:09;;;;;;;13.53;9.50;;;15.00;99.90;;;;;;4930606;28;20461;-74
2022/05/21 08:40:44;;;;;;;8.73;7.87;;;14.90;99.90;;;;;;4931969;29;20484;-79
2022/05/21 08:43:20;;;;;;;9.87;8.90;;;14.90;99.90;;;;;;4929691;29;20555;-80
2022/05/21 08:46:07;;;;;;;10.70;6.50;;;15.00;99.90;;;;;;4931751;28;20504;-72
2022/05/21 08:48:36;;;;;;;9.37;6.13;;;15.00;99.90;;;;;;4933956;29;20558;-73
2022/05/21 08:51:13;;;;;;;5.50;4.93;;;15.20;99.90;;;;;;4923397;29;21118;-73
2022/05/21 08:53:49;;;;;;;7.17;5.10;;;15.30;99.90;;;;;;4945421;28;20870;-73
2022/05/21 08:56:22;;;;;;;6.50;4.10;;;15.60;99.90;;;;;;4948128;28;20523;-72
2022/05/21 08:58:53;;;;;;;3.27;2.97;;;16.00;99.90;;;;;;4951205;28;20462;-73
2022/05/21 09:01:25;;;;;;;4.03;2.87;;;16.20;99.90;;;;;;4955300;28;20463;-82
2022/05/21 09:03:56;;;;;;;3.23;2.20;;;16.30;99.90;;;;;;4951642;28;20469;-74
2022/05/21 09:06:34;;;;;;;2.80;1.90;;;16.30;99.90;;;;;;4947717;28;20695;-71
2022/05/21 09:09:08;;;;;;;9.83;2.73;;;16.30;99.90;;;;;;4937884;29;20480;-70
2022/05/21 09:11:40;;;;;;;4.43;2.70;;;16.10;99.90;;;;;;4937364;29;21215;-71
2022/05/21 09:14:15;;;;;;;4.17;2.53;;;16.10;99.90;;;;;;4923938;29;20540;-71
2022/05/21 09:16:56;;;;;;;2.90;2.10;;;16.20;99.90;;;;;;4936704;28;21070;-71
2022/05/21 09:19:27;;;;;;;4.50;2.77;;;16.30;99.90;;;;;;4953246;28;20534;-71
2022/05/21 09:22:00;;;;;;;5.60;2.70;;;16.50;99.90;;;;;;4952050;28;20473;-70
2022/05/21 09:24:40;;;;;;;5.97;2.77;;;16.60;99.90;;;;;;4947601;28;20442;-70
2022/05/21 09:27:28;;;;;;;4.10;3.13;;;16.70;99.90;;;;;;4948157;28;20441;-70
2022/05/21 09:30:17;;;;;;;4.00;2.53;;;16.80;99.90;;;;;;4940114;28;20450;-71
2022/05/21 09:32:49;;;;;;;4.07;2.23;;;16.90;99.90;;;;;;4951925;28;20454;-70
2022/05/21 09:35:20;;;;;;;2.60;2.00;;;17.00;99.90;;;;;;4948715;28;20436;-71
2022/05/21 09:37:48;;;;;;;5.20;2.33;;;16.90;99.90;;;;;;4949978;28;20506;-71
2022/05/21 09:40:32;;;;;;;4.37;2.00;;;16.70;99.90;;;;;;4948803;28;20480;-76
2022/05/21 09:45:47;;;;;;;5.40;1.87;;;16.10;99.90;;;;;;4948604;28;20507;-76
2022/05/21 09:48:22;;;;;;;2.97;1.87;;;16.00;99.90;;;;;;4946851;28;21196;-76
2022/05/21 09:50:53;;;;;;;5.63;2.50;;;16.10;99.90;;;;;;4941445;29;20472;-78
2022/05/21 09:53:27;;;;;;;3.27;2.10;;;16.10;99.90;;;;;;4941607;29;21133;-76
2022/05/21 09:55:59;;;;;;;3.90;1.93;;;16.20;99.90;;;;;;4941300;29;20878;-77
2022/05/21 09:58:27;;;;;;;4.37;2.17;;;16.30;99.90;;;;;;4939784;29;20465;-77
2022/05/21 10:00:58;;;;;;;4.27;2.10;;;16.40;99.90;;;;;;4926043;29;20734;-81
2022/05/21 10:03:42;;;;;;;3.43;1.63;;;16.40;99.90;;;;;;4923271;29;20517;-79
2022/05/21 10:06:28;;;;;;;5.40;1.67;;;16.40;99.90;;;;;;4923588;29;20974;-82
2022/05/21 10:11:55;;;;;;;3.03;2.00;;;16.30;99.90;;;;;;4921178;29;20484;-77
2022/05/21 10:14:26;;;;;;;1.67;1.57;;;16.50;99.90;;;;;;4921179;29;20971;-79
2022/05/21 10:16:58;;;;;;;4.70;2.13;;;16.80;99.90;;;;;;4920665;29;20456;-78
2022/05/21 10:19:34;;;;;;;2.87;1.47;;;16.90;99.90;;;;;;4921792;29;20954;-80
2022/05/21 10:22:16;;;;;;;2.50;1.60;;;16.90;99.90;;;;;;4922603;29;20835;-80
2022/05/21 10:24:54;;;;;;;7.97;2.47;;;16.80;99.90;;;;;;4922975;29;20454;-80
2022/05/21 10:27:33;;;;;;;4.63;2.03;;;16.80;99.90;;;;;;4944895;29;20808;-80
2022/05/21 10:30:08;;;;;;;7.57;2.03;;;16.70;99.90;;;;;;4943875;29;20491;-80
2022/05/21 10:33:19;;;;;;;3.60;2.10;;;16.60;99.90;;;;;;4940328;29;20820;-79
2022/05/21 10:35:56;;;;;;;5.60;2.10;;;16.60;99.90;;;;;;4926288;28;20463;-80
2022/05/21 10:38:41;;;;;;;4.00;1.90;;;16.90;99.90;;;;;;4921962;29;20454;-80
2022/05/21 10:41:17;;;;;;;4.50;1.67;;;17.20;99.90;;;;;;4933718;29;21033;-80
2022/05/21 10:44:00;;;;;;;4.97;2.43;;;17.30;99.90;;;;;;4940965;29;20454;-80
2022/05/21 10:46:39;;;;;;;3.83;3.40;;;17.50;99.90;;;;;;4921641;29;20952;-79
2022/05/21 10:49:30;;;;;;;8.90;2.17;;;17.50;99.90;;;;;;4925342;29;20496;-78
2022/05/21 10:52:02;;;;;;;6.27;1.87;;;17.70;99.90;;;;;;4940791;29;21022;-79
2022/05/21 10:54:46;;;;;;;5.77;1.47;;;17.70;99.90;;;;;;4941935;29;20442;-78
2022/05/21 10:57:29;;;;;;;7.30;2.30;;;17.80;99.90;;;;;;4942141;29;20449;-80
2022/05/21 11:00:06;;;;;;;6.40;2.30;;;17.90;99.90;;;;;;4932109;29;20574;-78
2022/05/21 11:03:09;;;;;;;5.07;1.50;;;17.90;99.90;;;;;;4920159;29;20845;-79
2022/05/21 11:05:56;;;;;;;4.07;1.73;;;17.90;99.90;;;;;;4919532;29;21048;-78
2022/05/21 11:08:29;;;;;;;5.10;2.47;;;17.90;99.90;;;;;;4920570;29;20531;-79
2022/05/21 11:11:05;;;;;;;8.40;2.50;;;17.90;99.90;;;;;;4919713;29;20783;-78
2022/05/21 11:13:37;;;;;;;3.37;1.83;;;17.90;99.90;;;;;;4920781;29;20462;-78
2022/05/21 11:16:12;;;;;;;3.10;2.00;;;17.80;99.90;;;;;;4921113;29;20544;-78
2022/05/21 11:18:43;;;;;;;7.93;2.97;;;17.70;99.90;;;;;;4937139;29;20589;-77
2022/05/21 11:21:19;;;;;;;3.67;1.90;;;17.60;99.90;;;;;;4928101;29;20675;-78
2022/05/21 11:23:56;;;;;;;5.37;1.50;;;17.60;99.90;;;;;;4928565;29;20553;-80
2022/05/21 11:26:33;;;;;;;5.27;1.40;;;17.70;99.90;;;;;;4936061;29;20464;-80
2022/05/21 11:29:08;;;;;;;2.13;1.33;;;17.90;99.90;;;;;;4930641;29;20493;-81
2022/05/21 11:37:30;;;;;;;4.13;1.63;;;17.90;99.90;;;;;;4936232;29;20698;-83
2022/05/21 11:39:59;;;;;;;2.30;1.40;;;17.90;99.90;;;;;;4937945;29;20466;-79
2022/05/21 11:42:30;;;;;;;4.17;1.80;;;17.90;99.90;;;;;;4938348;28;20506;-81
2022/05/21 11:45:14;;;;;;;5.40;1.80;;;17.80;99.90;;;;;;4939447;29;20482;-82
2022/05/21 11:47:50;;;;;;;4.37;2.00;;;17.90;99.90;;;;;;4935455;29;20461;-78
2022/05/21 11:50:32;;;;;;;4.30;1.27;;;18.10;99.90;;;;;;4928903;29;20491;-79
2022/05/21 11:53:09;;;;;;;5.83;2.13;;;18.00;99.90;;;;;;4939470;29;20473;-81
2022/05/21 11:56:13;;;;;;;2.87;1.50;;;17.90;99.90;;;;;;4929906;29;20496;-83
2022/05/21 11:59:18;;;;;;;4.73;1.60;;;17.80;99.90;;;;;;4919344;29;20490;-82
2022/05/21 12:02:00;;;;;;;3.70;1.77;;;18.00;99.90;;;;;;4931864;28;20513;-79
2022/05/21 12:04:58;;;;;;;3.50;1.87;;;18.00;99.90;;;;;;4956887;28;20429;-79
2022/05/21 12:07:56;;;;;;;2.40;2.03;;;18.00;99.90;;;;;;4932656;29;20809;-80
2022/05/21 12:10:30;;;;;;;2.40;1.50;;;17.80;99.90;;;;;;4926224;29;20498;-78
2022/05/21 12:13:11;;;;;;;4.23;1.73;;;17.80;99.90;;;;;;4928368;29;20474;-79
2022/05/21 12:15:48;;;;;;;4.97;2.10;;;17.90;99.90;;;;;;4936997;29;20465;-80
2022/05/21 12:18:35;;;;;;;9.90;2.20;;;17.80;99.90;;;;;;4936718;28;20834;-79
2022/05/21 12:21:06;;;;;;;2.10;1.10;;;17.70;99.90;;;;;;4935106;29;20503;-80
2022/05/21 12:23:59;;;;;;;7.20;1.87;;;17.70;99.90;;;;;;4928781;28;20471;-79
2022/05/21 12:26:31;;;;;;;5.83;1.53;;;17.90;99.90;;;;;;4935205;29;20462;-82
2022/05/21 12:29:14;;;;;;;12.57;2.10;;;18.20;99.90;;;;;;4929978;28;20484;-80
2022/05/21 12:31:47;;;;;;;4.37;1.50;;;18.30;99.90;;;;;;4935680;29;20475;-82
2022/05/21 12:34:37;;;;;;;4.93;1.60;;;18.30;99.90;;;;;;4934419;29;20552;-82
2022/05/21 12:37:13;;;;;;;4.10;1.10;;;18.30;99.90;;;;;;4932976;29;20450;-79
2022/05/21 12:39:54;;;;;;;3.70;1.23;;;18.30;99.90;;;;;;4937461;29;20455;-75
2022/05/21 12:42:27;;;;;;;1.77;1.10;;;18.40;99.90;;;;;;4932298;29;20475;-77
2022/05/21 12:44:55;;;;;;;4.60;1.30;;;18.40;99.90;;;;;;4921873;29;20465;-80
2022/05/21 12:47:29;;;;;;;1.97;1.10;;;18.50;99.90;;;;;;4924783;29;20459;-75
2022/05/21 12:49:58;;;;;;;2.90;1.03;;;18.60;99.90;;;;;;4941897;29;20470;-78
2022/05/21 12:52:30;;;;;;;4.43;1.33;;;18.90;99.90;;;;;;4932336;28;20472;-78
2022/05/21 12:55:19;;;;;;;3.73;0.90;;;18.90;99.90;;;;;;4921705;29;20579;-78
2022/05/21 12:57:49;;;;;;;3.60;1.20;;;18.80;99.90;;;;;;4929432;29;20440;-78
2022/05/21 13:00:18;;;;;;;2.87;1.30;;;18.80;99.90;;;;;;4923035;29;20853;-80
2022/05/21 13:02:47;;;;;;;1.20;1.00;;;18.80;99.90;;;;;;4937124;29;20451;-77
2022/05/21 13:05:22;;;;;;;3.63;1.43;;;18.80;99.90;;;;;;4929794;28;20455;-75
2022/05/21 13:07:51;;;;;;;6.47;1.97;;;18.90;99.90;;;;;;4941947;29;20908;-80
2022/05/21 13:10:24;;;;;;;4.20;1.87;;;18.90;99.90;;;;;;4941076;28;20493;-78
2022/05/21 13:12:56;;;;;;;3.77;1.13;;;19.00;99.90;;;;;;4929505;29;20964;-80
2022/05/21 13:15:29;;;;;;;5.03;1.30;;;19.00;99.90;;;;;;4940718;28;20459;-79
2022/05/21 13:18:07;;;;;;;2.13;1.47;;;19.00;99.90;;;;;;4931550;29;20750;-78
2022/05/21 13:20:41;;;;;;;3.23;0.97;;;18.90;99.90;;;;;;4938455;29;20998;-76
2022/05/21 13:23:43;;;;;;;1.70;1.07;;;18.90;99.90;;;;;;4928757;29;20719;-77
2022/05/21 13:26:19;;;;;;;5.50;1.53;;;18.80;99.90;;;;;;4929879;29;20464;-78
2022/05/21 13:28:49;;;;;;;2.80;1.33;;;18.80;99.90;;;;;;4927897;29;21050;-78
2022/05/21 13:31:18;;;;;;;2.97;0.90;;;18.70;99.90;;;;;;4930848;29;20507;-78
2022/05/21 13:33:50;;;;;;;5.50;1.17;;;18.70;99.90;;;;;;4932533;29;20828;-78
2022/05/21 13:36:21;;;;;;;3.53;1.40;;;18.50;99.90;;;;;;4932642;29;20472;-78
2022/05/21 13:38:53;;;;;;;5.43;2.47;;;18.40;99.90;;;;;;4923793;29;20463;-79
2022/05/21 13:41:28;;;;;;;2.17;1.33;;;18.40;99.90;;;;;;4933107;29;20493;-78